LIMC Información de aeropuertos

Información de pistas
Pista 17L Longitud 12861 ft Ancho 197 ft
Elevación 745 ft Umbral 3094 ft Rumbo 170
Pista 35R Longitud 12861 ft Ancho 197 ft
Elevación 691 ft Umbral 0 ft Rumbo 350
Pista 17R Longitud 12861 ft Ancho 197 ft
Elevación 764 ft Umbral 0 ft Rumbo 170
Pista 35L Longitud 12861 ft Ancho 197 ft
Elevación 696 ft Umbral 1329 ft Rumbo 350
Frecuencias
Tipo APP Nombre MILANO APP Frequencia 132.7 MHZ
Tipo ATIS Nombre ATIS Frequencia 120.025 MHZ
Tipo CLD Nombre CLNC DEL Frequencia 120.9 MHZ
Tipo DEP Nombre MILANO DEP Frequencia 126.75 MHZ
Tipo GND Nombre GND Frequencia 121.9 MHZ
Tipo TWR Nombre TWR Frequencia 119 MHZ
Radioayudas
Tipo VOR-DME Nombre Malpensa Frequencia 111200 KHZ
Tipo NDB Nombre Malpensa Frequencia 364 KHZ
Información meteorológica y NOTAM
ADDS - METARS form results

(1505 UTC 22 April 2021)
Data provider http://aviationweather.gov/metar/data/
 
METAR text: LIMC 221450Z 17006KT 090V250 CAVOK 19/06 Q1017 NOSIG
Conditions at: LIMC (MILANO/MALPENSA , IT) observed 1450 UTC 22 April 2021
Temperature: 19.0°C (66°F)
Dewpoint: 6.0°C (43°F) [RH = 43%]
Pressure (altimeter): 30.03 inches Hg (1017.0 mb)
Winds: from the S (170 degrees) at 7 MPH (6 knots; 3.1 m/s)
Visibility: 6 or more miles (10+ km)
Ceiling: ceiling and visibility are OK
Clouds: unknown
Weather: no significant weather observed at this time

METAR text: LIMC 221420Z 24006KT 180V280 9999 SCT050 19/06 Q1017 NOSIG
Conditions at: LIMC (MILANO/MALPENSA , IT) observed 1420 UTC 22 April 2021
Temperature: 19.0°C (66°F)
Dewpoint: 6.0°C (43°F) [RH = 43%]
Pressure (altimeter): 30.03 inches Hg (1017.0 mb)
Winds: from the WSW (240 degrees) at 7 MPH (6 knots; 3.1 m/s)
Visibility: 6 or more miles (10+ km)
Ceiling: at least 12,000 feet AGL
Clouds: scattered clouds at 5000 feet AGL
Weather: no significant weather observed at this time

Forecast for: LIMC (MILANO/MALPENSA , IT)
Text: TAF LIMC 221100Z 2212/2318 VRB05KT 9999 FEW040
Forecast period: 1200 UTC 22 April 2021 to 1800 UTC 23 April 2021
Forecast type: FROM: standard forecast or significant change
Winds: variable direction winds at 6 MPH (5 knots; 2.6 m/s)
Visibility: 6 or more miles (10+ km)
Ceiling: at least 12,000 feet AGL
Clouds: few clouds at 4000 feet AGL
Weather: no significant weather forecast for this period